createdAt,value
2018-09-29T00:00:20.227Z,97346.45
2018-09-29T00:02:47.643Z,97351.92
2018-09-29T00:05:15.169Z,97347.78
2018-09-29T00:07:42.705Z,97352.13
2018-09-29T00:10:10.183Z,97350.79
2018-09-29T00:12:37.823Z,97346.19
2018-09-29T00:15:05.295Z,97353.42
2018-09-29T00:17:33.502Z,97351.73
2018-09-29T00:20:00.982Z,97354.89
2018-09-29T00:22:28.444Z,97354.41
2018-09-29T00:24:55.959Z,97342.59
2018-09-29T00:27:23.418Z,97343.22
2018-09-29T00:29:50.912Z,97339.39
2018-09-29T00:32:18.351Z,97343.52
2018-09-29T00:34:45.824Z,97348.63
2018-09-29T00:37:13.650Z,97348.98
2018-09-29T00:39:42.079Z,97349.48
2018-09-29T00:42:09.578Z,97352.27
2018-09-29T00:44:37.042Z,97346.91
2018-09-29T00:47:04.522Z,97345.30
2018-09-29T00:49:32.063Z,97349.42
2018-09-29T00:51:59.562Z,97347.18
2018-09-29T00:54:27.036Z,97351.16
2018-09-29T00:56:54.518Z,97345.86
2018-09-29T00:59:22.022Z,97343.49
2018-09-29T01:01:49.515Z,97341.59
2018-09-29T01:04:17.150Z,97339.72
2018-09-29T01:06:44.589Z,97344.74
2018-09-29T01:09:12.025Z,97344.95
2018-09-29T01:11:39.543Z,97334.17
2018-09-29T01:14:07.004Z,97345.25
2018-09-29T01:16:34.464Z,97344.49
2018-09-29T01:19:02.070Z,97348.80
2018-09-29T01:21:29.524Z,97350.00
2018-09-29T01:23:57.057Z,97348.60
2018-09-29T01:26:24.534Z,97338.94
2018-09-29T01:28:52.023Z,97344.90
2018-09-29T01:31:19.497Z,97343.57
2018-09-29T01:33:46.980Z,97337.14
2018-09-29T01:36:14.458Z,97339.72
2018-09-29T01:38:41.910Z,97337.59
2018-09-29T01:41:09.345Z,97330.54
2018-09-29T01:43:36.773Z,97337.58
2018-09-29T01:46:04.334Z,97336.66
2018-09-29T01:48:31.827Z,97325.00
2018-09-29T01:50:59.249Z,97331.05
2018-09-29T01:53:26.792Z,97332.46
2018-09-29T01:55:54.279Z,97326.94
2018-09-29T01:58:21.758Z,97319.38
2018-09-29T02:00:49.247Z,97316.31
2018-09-29T02:03:16.693Z,97327.81
2018-09-29T02:05:44.112Z,97333.66
2018-09-29T02:08:11.566Z,97329.90
2018-09-29T02:10:38.976Z,97323.26
2018-09-29T02:13:06.457Z,97323.58
2018-09-29T02:15:33.919Z,97320.45
2018-09-29T02:18:01.394Z,97316.51
2018-09-29T02:20:28.895Z,97314.16
2018-09-29T02:22:56.385Z,97323.77
2018-09-29T02:25:23.863Z,97319.25
2018-09-29T02:27:52.221Z,97317.34
2018-09-29T02:30:19.733Z,97317.13
2018-09-29T02:32:47.149Z,97301.67
2018-09-29T02:35:14.637Z,97310.44
2018-09-29T02:37:42.085Z,97312.03
2018-09-29T02:40:09.508Z,97319.59
2018-09-29T02:42:37.067Z,97304.77
2018-09-29T02:45:04.563Z,97309.98
2018-09-29T02:47:31.977Z,97310.03
2018-09-29T02:49:59.439Z,97309.70
2018-09-29T02:52:27.543Z,97310.50
2018-09-29T02:54:55.012Z,97310.59
2018-09-29T02:57:22.546Z,97314.00
2018-09-29T02:59:49.988Z,97311.16
2018-09-29T03:02:17.443Z,97321.67
2018-09-29T03:04:44.964Z,97324.74
2018-09-29T03:07:13.294Z,97319.45
2018-09-29T03:09:40.674Z,97322.98
2018-09-29T03:12:08.484Z,97317.50
2018-09-29T03:14:35.954Z,97325.17
2018-09-29T03:17:03.464Z,97310.19
2018-09-29T03:19:30.916Z,97311.06
2018-09-29T03:21:58.349Z,97306.45
2018-09-29T03:24:25.787Z,97303.34
2018-09-29T03:26:53.247Z,97304.08
2018-09-29T03:29:20.909Z,97299.55
2018-09-29T03:31:48.389Z,97305.38
2018-09-29T03:34:16.135Z,97304.36
2018-09-29T03:36:43.582Z,97306.63
2018-09-29T03:39:11.014Z,97303.05
2018-09-29T03:41:38.439Z,97303.34
2018-09-29T03:44:05.871Z,97309.33
2018-09-29T03:46:33.336Z,97298.03
2018-09-29T03:49:00.774Z,97294.02
2018-09-29T03:51:28.185Z,97296.97
2018-09-29T03:53:56.047Z,97297.84
2018-09-29T03:56:23.545Z,97306.19
2018-09-29T03:58:50.997Z,97308.68
2018-09-29T04:01:18.431Z,97302.67
2018-09-29T04:03:46.985Z,97307.50
2018-09-29T04:06:14.481Z,97317.78
2018-09-29T04:08:41.884Z,97310.33
2018-09-29T04:11:09.408Z,97317.89
2018-09-29T04:13:36.820Z,97314.78
2018-09-29T04:16:04.272Z,97318.56
2018-09-29T04:18:31.742Z,97321.81
2018-09-29T04:20:59.163Z,97320.33
2018-09-29T04:23:26.690Z,97317.34
2018-09-29T04:25:54.147Z,97322.72
2018-09-29T04:28:21.667Z,97322.99
2018-09-29T04:30:49.115Z,97322.69
2018-09-29T04:33:16.522Z,97318.45
2018-09-29T04:35:43.945Z,97322.53
2018-09-29T04:38:11.446Z,97331.73
2018-09-29T04:40:38.920Z,97325.44
2018-09-29T04:43:06.464Z,97324.90
2018-09-29T04:45:33.977Z,97327.38
2018-09-29T04:48:01.419Z,97335.77
2018-09-29T04:50:28.885Z,97323.59
2018-09-29T04:52:56.306Z,97326.17
2018-09-29T04:55:25.014Z,97330.59
2018-09-29T04:57:52.466Z,97329.59
2018-09-29T05:00:19.926Z,97322.28
2018-09-29T05:02:47.389Z,97326.77
2018-09-29T05:05:15.854Z,97334.09
2018-09-29T05:07:43.290Z,97333.48
2018-09-29T05:10:10.778Z,97337.83
2018-09-29T05:12:40.347Z,97339.38
2018-09-29T05:15:07.844Z,97331.03
2018-09-29T05:17:35.323Z,97339.48
2018-09-29T05:20:02.752Z,97334.20
2018-09-29T05:22:30.211Z,97336.01
2018-09-29T05:24:57.644Z,97325.27
2018-09-29T05:27:25.049Z,97326.34
2018-09-29T05:29:52.552Z,97342.25
2018-09-29T05:32:19.949Z,97328.52
2018-09-29T05:34:47.396Z,97334.63
2018-09-29T05:37:14.846Z,97338.18
2018-09-29T05:39:42.951Z,97342.79
2018-09-29T05:42:10.370Z,97347.95
2018-09-29T05:44:37.821Z,97342.13
2018-09-29T05:47:05.239Z,97348.78
2018-09-29T05:49:32.677Z,97348.69
2018-09-29T05:52:00.155Z,97349.27
2018-09-29T05:54:27.605Z,97356.66
2018-09-29T05:56:55.015Z,97345.60
2018-09-29T05:59:22.523Z,97347.06
2018-09-29T06:01:50.015Z,97355.91
2018-09-29T06:04:17.502Z,97351.30
2018-09-29T06:06:45.661Z,97348.67
2018-09-29T06:09:13.109Z,97362.17
2018-09-29T06:11:40.511Z,97359.00
2018-09-29T06:14:08.026Z,97363.87
2018-09-29T06:16:35.509Z,97364.09
2018-09-29T06:19:02.980Z,97374.60
2018-09-29T06:21:30.546Z,97375.02
2018-09-29T06:23:58.022Z,97376.84
2018-09-29T06:26:25.457Z,97381.22
2018-09-29T06:28:52.880Z,97380.63
2018-09-29T06:31:20.322Z,97380.55
2018-09-29T06:33:47.787Z,97392.70
2018-09-29T06:36:15.346Z,97387.65
2018-09-29T06:38:42.813Z,97381.44
2018-09-29T06:41:10.615Z,97385.71
2018-09-29T06:43:38.164Z,97388.53
2018-09-29T06:46:05.644Z,97388.39
2018-09-29T06:48:33.152Z,97389.60
2018-09-29T06:51:00.645Z,97397.48
2018-09-29T06:53:28.132Z,97393.80
2018-09-29T06:55:55.669Z,97394.91
2018-09-29T06:58:23.286Z,97397.53
2018-09-29T07:00:50.759Z,97398.44
2018-09-29T07:03:18.175Z,97400.84
2018-09-29T07:05:45.578Z,97401.42
2018-09-29T07:08:13.047Z,97403.27
2018-09-29T07:10:40.477Z,97397.11
2018-09-29T07:13:07.930Z,97398.47
2018-09-29T07:15:35.396Z,97399.78
2018-09-29T07:18:02.809Z,97408.52
2018-09-29T07:20:30.304Z,97392.09
2018-09-29T07:22:58.641Z,97405.97
2018-09-29T07:25:26.213Z,97409.98
2018-09-29T07:27:53.664Z,97405.83
2018-09-29T07:30:21.867Z,97414.91
2018-09-29T07:32:49.923Z,97414.28
2018-09-29T07:35:17.469Z,97414.17
2018-09-29T07:37:45.317Z,97414.70
2018-09-29T07:40:12.795Z,97417.13
2018-09-29T07:42:40.277Z,97417.51
2018-09-29T07:45:07.753Z,97414.41
2018-09-29T07:47:35.218Z,97423.89
2018-09-29T07:50:02.739Z,97420.59
2018-09-29T07:52:30.178Z,97417.95
2018-09-29T07:54:57.847Z,97413.27
2018-09-29T07:57:25.263Z,97425.47
2018-09-29T07:59:52.768Z,97423.75
2018-09-29T08:02:20.847Z,97427.34
2018-09-29T08:04:48.795Z,97423.07
2018-09-29T08:07:16.301Z,97419.63
2018-09-29T08:09:43.728Z,97426.17
2018-09-29T08:12:12.460Z,97425.50
2018-09-29T08:14:40.357Z,97429.58
2018-09-29T08:17:07.924Z,97429.39
2018-09-29T08:19:35.359Z,97438.31
2018-09-29T08:22:02.798Z,97442.39
2018-09-29T08:24:30.281Z,97438.50
2018-09-29T08:26:57.698Z,97449.43
2018-09-29T08:29:25.193Z,97446.29
2018-09-29T08:31:52.888Z,97449.05
2018-09-29T08:34:20.445Z,97456.98
2018-09-29T08:36:47.884Z,97460.77
2018-09-29T08:39:15.286Z,97458.99
2018-09-29T08:41:42.948Z,97464.98
2018-09-29T08:44:10.399Z,97462.50
2018-09-29T08:46:37.990Z,97457.20
2018-09-29T08:49:06.277Z,97461.33
2018-09-29T08:51:33.838Z,97468.71
2018-09-29T08:54:01.493Z,97469.96
2018-09-29T08:56:28.934Z,97471.58
2018-09-29T08:58:56.461Z,97472.41
2018-09-29T09:01:23.899Z,97468.94
2018-09-29T09:03:51.369Z,97478.81
2018-09-29T09:06:18.785Z,97484.94
2018-09-29T09:08:46.238Z,97480.93
2018-09-29T09:11:14.053Z,97483.69
2018-09-29T09:13:41.526Z,97486.19
2018-09-29T09:16:08.981Z,97485.20
2018-09-29T09:18:36.451Z,97491.06
2018-09-29T09:21:03.905Z,97487.21
2018-09-29T09:23:31.392Z,97491.79
2018-09-29T09:25:59.672Z,97492.66
2018-09-29T09:28:27.141Z,97483.80
2018-09-29T09:30:54.594Z,97483.66
2018-09-29T09:33:22.125Z,97484.38
2018-09-29T09:35:49.603Z,97485.39
2018-09-29T09:38:17.112Z,97492.92
2018-09-29T09:40:44.877Z,97487.78
2018-09-29T09:43:12.356Z,97484.48
2018-09-29T09:45:40.027Z,97486.52
2018-09-29T09:48:07.509Z,97487.13
2018-09-29T09:50:34.970Z,97482.74
2018-09-29T09:53:02.559Z,97483.28
2018-09-29T09:55:30.116Z,97483.99
2018-09-29T09:57:57.789Z,97483.30
2018-09-29T10:00:25.292Z,97488.67
2018-09-29T10:02:52.808Z,97487.31
2018-09-29T10:05:20.288Z,97480.80
2018-09-29T10:07:47.718Z,97490.60
2018-09-29T10:10:15.182Z,97481.73
2018-09-29T10:12:42.633Z,97487.57
2018-09-29T10:15:10.095Z,97481.72
2018-09-29T10:17:37.623Z,97484.53
2018-09-29T10:20:05.048Z,97489.97
2018-09-29T10:22:32.552Z,97487.09
2018-09-29T10:25:00.080Z,97490.34
2018-09-29T10:27:27.578Z,97487.70
2018-09-29T10:29:54.999Z,97492.42
2018-09-29T10:32:22.526Z,97493.91
2018-09-29T10:34:49.962Z,97485.89
2018-09-29T10:37:17.406Z,97485.23
2018-09-29T10:39:44.986Z,97490.83
2018-09-29T10:42:12.423Z,97485.06
2018-09-29T10:44:41.004Z,97488.56
2018-09-29T10:47:08.468Z,97485.96
2018-09-29T10:49:35.902Z,97486.70
2018-09-29T10:52:03.589Z,97485.16
2018-09-29T10:54:31.074Z,97487.47
2018-09-29T10:56:58.551Z,97484.86
2018-09-29T10:59:26.037Z,97486.58
2018-09-29T11:01:53.488Z,97494.21
2018-09-29T11:04:21.028Z,97491.09
2018-09-29T11:06:48.586Z,97493.22
2018-09-29T11:09:16.462Z,97488.02
2018-09-29T11:11:43.899Z,97492.16
2018-09-29T11:14:11.324Z,97495.78
2018-09-29T11:16:39.292Z,97498.78
2018-09-29T11:19:06.788Z,97491.20
2018-09-29T11:21:34.237Z,97494.39
2018-09-29T11:24:01.809Z,97497.02
2018-09-29T11:26:29.436Z,97497.91
2018-09-29T11:28:56.967Z,97490.58
2018-09-29T11:31:24.452Z,97487.73
2018-09-29T11:33:51.922Z,97484.88
2018-09-29T11:36:19.345Z,97484.27
2018-09-29T11:38:46.800Z,97480.28
2018-09-29T11:41:14.225Z,97488.64
2018-09-29T11:43:41.781Z,97486.41
2018-09-29T11:46:09.213Z,97480.50
2018-09-29T11:48:36.752Z,97476.39
2018-09-29T11:51:04.196Z,97472.61
2018-09-29T11:53:31.857Z,97471.22
2018-09-29T11:55:59.272Z,97470.14
2018-09-29T11:58:26.696Z,97467.59
2018-09-29T12:00:54.172Z,97470.74
2018-09-29T12:03:21.685Z,97459.19
2018-09-29T12:05:49.203Z,97469.75
2018-09-29T12:08:16.613Z,97465.01
2018-09-29T12:10:44.079Z,97464.41
2018-09-29T12:13:11.517Z,97462.67
2018-09-29T12:15:38.919Z,97467.05
2018-09-29T12:18:07.052Z,97456.02
2018-09-29T12:20:34.488Z,97462.68
2018-09-29T12:23:02.233Z,97455.88
2018-09-29T12:25:29.745Z,97463.59
2018-09-29T12:27:57.230Z,97463.17
2018-09-29T12:30:24.743Z,97459.47
2018-09-29T12:32:51.837Z,97452.72
2018-09-29T12:35:18.878Z,97455.48
2018-09-29T12:37:46.430Z,97455.48
2018-09-29T12:40:13.911Z,97458.66
2018-09-29T12:42:40.895Z,97454.86
2018-09-29T12:45:07.917Z,97447.52
2018-09-29T12:47:34.948Z,97450.31
2018-09-29T12:50:01.966Z,97448.06
2018-09-29T12:52:30.416Z,97442.22
2018-09-29T12:54:57.890Z,97449.01
2018-09-29T12:57:25.335Z,97443.09
2018-09-29T12:59:52.370Z,97439.24
2018-09-29T13:02:19.346Z,97431.14
2018-09-29T13:04:46.360Z,97434.92
2018-09-29T13:07:13.452Z,97439.69
2018-09-29T13:09:40.955Z,97434.43
2018-09-29T13:12:08.449Z,97437.28
2018-09-29T13:14:35.425Z,97436.67
2018-09-29T13:17:02.525Z,97436.13
2018-09-29T13:19:29.590Z,97425.50
2018-09-29T13:21:56.518Z,97432.58
2018-09-29T13:24:23.511Z,97433.91
2018-09-29T13:26:50.503Z,97437.44
2018-09-29T13:29:17.454Z,97435.00
2018-09-29T13:31:44.494Z,97435.84
2018-09-29T13:34:11.468Z,97433.53
2018-09-29T13:36:38.935Z,97419.01
2018-09-29T13:39:06.589Z,97431.17
2018-09-29T13:41:34.092Z,97419.97
2018-09-29T13:44:01.584Z,97414.74
2018-09-29T13:46:29.196Z,97422.00
2018-09-29T13:48:56.682Z,97417.70
2018-09-29T13:51:24.293Z,97418.63
2018-09-29T13:53:51.731Z,97409.09
2018-09-29T13:56:19.220Z,97415.55
2018-09-29T13:58:46.664Z,97410.66
2018-09-29T14:01:14.157Z,97404.53
2018-09-29T14:03:41.613Z,97411.43
2018-09-29T14:06:09.126Z,97405.78
2018-09-29T14:08:36.647Z,97414.54
2018-09-29T14:11:04.078Z,97402.58
2018-09-29T14:13:31.502Z,97402.54
2018-09-29T14:15:58.658Z,97400.34
2018-09-29T14:18:26.098Z,97395.80
2018-09-29T14:20:53.064Z,97385.17
2018-09-29T14:23:20.128Z,97396.30
2018-09-29T14:25:47.169Z,97402.77
2018-09-29T14:28:14.151Z,97396.93
2018-09-29T14:30:41.773Z,97390.06
2018-09-29T14:33:08.781Z,97390.14
2018-09-29T14:35:35.790Z,97396.00
2018-09-29T14:38:02.799Z,97392.55
2018-09-29T14:40:29.810Z,97395.56
2018-09-29T14:42:56.887Z,97394.83
2018-09-29T14:45:24.033Z,97388.98
2018-09-29T14:47:51.082Z,97392.38
2018-09-29T14:50:18.063Z,97390.62
2018-09-29T14:52:45.057Z,97385.14
2018-09-29T14:55:12.009Z,97387.05
2018-09-29T14:57:39.923Z,97388.48
2018-09-29T15:00:08.410Z,97386.95
2018-09-29T15:02:35.372Z,97383.15
2018-09-29T15:05:02.347Z,97382.34
2018-09-29T15:07:29.395Z,97389.14
2018-09-29T15:09:56.406Z,97390.15
2018-09-29T15:12:23.441Z,97393.89
2018-09-29T15:14:50.383Z,97391.12
2018-09-29T15:17:17.569Z,97389.30
2018-09-29T15:19:44.603Z,97391.36
2018-09-29T15:22:12.186Z,97395.47
2018-09-29T15:24:39.243Z,97389.05
2018-09-29T15:27:06.285Z,97393.77
2018-09-29T15:29:33.262Z,97397.08
2018-09-29T15:32:00.284Z,97394.00
2018-09-29T15:34:27.270Z,97395.34
2018-09-29T15:36:54.293Z,97393.58
2018-09-29T15:39:21.316Z,97392.70
2018-09-29T15:41:48.293Z,97390.92
2018-09-29T15:44:15.329Z,97394.41
2018-09-29T15:46:42.367Z,97394.30
2018-09-29T15:49:09.806Z,97394.01
2018-09-29T15:51:36.828Z,97387.83
2018-09-29T15:54:04.405Z,97391.98
2018-09-29T15:56:31.901Z,97391.09
2018-09-29T15:58:59.334Z,97390.06
2018-09-29T16:01:26.964Z,97393.50
2018-09-29T16:03:54.420Z,97391.44
2018-09-29T16:06:21.844Z,97395.66
2018-09-29T16:08:49.345Z,97397.70
2018-09-29T16:11:16.841Z,97394.99
2018-09-29T16:13:44.316Z,97390.07
2018-09-29T16:16:11.776Z,97399.16
2018-09-29T16:18:39.352Z,97391.08
2018-09-29T16:21:06.853Z,97391.59
2018-09-29T16:23:34.334Z,97400.54
2018-09-29T16:26:01.417Z,97399.25
2018-09-29T16:28:28.905Z,97399.08
2018-09-29T16:30:56.346Z,97400.33
2018-09-29T16:33:23.769Z,97409.86
2018-09-29T16:35:50.790Z,97412.28
2018-09-29T16:38:17.871Z,97409.56
2018-09-29T16:40:45.257Z,97414.40
2018-09-29T16:43:12.803Z,97413.76
2018-09-29T16:45:39.820Z,97419.73
2018-09-29T16:48:07.249Z,97415.89
2018-09-29T16:50:34.750Z,97413.39
2018-09-29T16:53:02.150Z,97416.89
2018-09-29T16:55:29.686Z,97413.89
2018-09-29T16:57:57.139Z,97415.78
2018-09-29T17:00:24.615Z,97418.67
2018-09-29T17:02:52.097Z,97426.64
2018-09-29T17:05:19.624Z,97421.72
2018-09-29T17:07:47.047Z,97434.94
2018-09-29T17:10:14.669Z,97436.97
2018-09-29T17:12:41.864Z,97438.02
2018-09-29T17:15:09.346Z,97443.58
2018-09-29T17:17:36.812Z,97442.74
2018-09-29T17:20:04.407Z,97443.53
2018-09-29T17:22:31.829Z,97447.30
2018-09-29T17:24:59.319Z,97450.70
2018-09-29T17:27:26.738Z,97447.14
2018-09-29T17:29:53.716Z,97454.39
2018-09-29T17:32:20.902Z,97455.58
2018-09-29T17:34:48.228Z,97453.22
2018-09-29T17:37:15.920Z,97460.25
2018-09-29T17:39:43.334Z,97460.73
2018-09-29T17:42:10.281Z,97469.39
2018-09-29T17:44:37.747Z,97465.25
2018-09-29T17:47:04.871Z,97462.35
2018-09-29T17:49:32.321Z,97464.73
2018-09-29T17:51:59.623Z,97466.16
2018-09-29T17:54:26.590Z,97471.25
2018-09-29T17:56:54.044Z,97468.60
2018-09-29T17:59:21.493Z,97473.49
2018-09-29T18:01:48.955Z,97478.05
2018-09-29T18:04:16.449Z,97473.40
2018-09-29T18:06:43.916Z,97472.27
2018-09-29T18:09:11.348Z,97477.70
2018-09-29T18:11:38.858Z,97483.48
2018-09-29T18:14:06.323Z,97487.32
2018-09-29T18:16:33.821Z,97485.80
2018-09-29T18:19:01.322Z,97488.69
2018-09-29T18:21:28.786Z,97485.48
2018-09-29T18:23:56.263Z,97485.30
2018-09-29T18:26:23.710Z,97489.93
2018-09-29T18:28:51.195Z,97492.30
2018-09-29T18:31:18.722Z,97487.00
2018-09-29T18:33:46.169Z,97494.23
2018-09-29T18:36:13.667Z,97493.67
2018-09-29T18:38:41.203Z,97487.77
2018-09-29T18:41:08.622Z,97491.44
2018-09-29T18:43:36.118Z,97495.03
2018-09-29T18:46:03.571Z,97498.41
2018-09-29T18:48:31.073Z,97495.23
2018-09-29T18:50:58.507Z,97498.67
2018-09-29T18:53:25.942Z,97494.13
2018-09-29T18:55:53.366Z,97496.13
2018-09-29T18:58:20.825Z,97498.22
2018-09-29T19:00:48.252Z,97500.30
2018-09-29T19:03:15.702Z,97499.77
2018-09-29T19:05:43.190Z,97509.03
2018-09-29T19:08:10.644Z,97498.44
2018-09-29T19:10:38.198Z,97504.16
2018-09-29T19:13:05.666Z,97505.36
2018-09-29T19:15:33.135Z,97514.23
2018-09-29T19:18:00.572Z,97512.69
2018-09-29T19:20:28.125Z,97510.57
2018-09-29T19:22:55.558Z,97514.23
2018-09-29T19:25:23.083Z,97514.01
2018-09-29T19:27:50.510Z,97517.44
2018-09-29T19:30:17.933Z,97520.05
2018-09-29T19:32:45.393Z,97525.27
2018-09-29T19:35:12.959Z,97525.80
2018-09-29T19:37:40.444Z,97517.44
2018-09-29T19:40:07.892Z,97530.98
2018-09-29T19:42:35.391Z,97525.64
2018-09-29T19:45:02.847Z,97525.94
2018-09-29T19:47:30.299Z,97523.36
2018-09-29T19:49:57.785Z,97523.70
2018-09-29T19:52:25.247Z,97530.51
2018-09-29T19:54:53.355Z,97535.98
2018-09-29T19:57:20.837Z,97536.70
2018-09-29T19:59:48.383Z,97540.98
2018-09-29T20:02:15.792Z,97538.33
2018-09-29T20:04:43.239Z,97543.58
2018-09-29T20:07:11.888Z,97539.72
2018-09-29T20:09:39.351Z,97545.92
2018-09-29T20:12:07.028Z,97546.28
2018-09-29T20:14:34.537Z,97540.57
2018-09-29T20:17:02.070Z,97528.99
2018-09-29T20:19:29.507Z,97537.95
2018-09-29T20:21:57.206Z,97533.37
2018-09-29T20:24:24.761Z,97539.51
2018-09-29T20:26:52.206Z,97543.20
2018-09-29T20:29:19.672Z,97541.72
2018-09-29T20:31:47.144Z,97544.66
2018-09-29T20:34:14.568Z,97545.87
2018-09-29T20:36:42.017Z,97537.80
2018-09-29T20:39:09.488Z,97548.78
2018-09-29T20:41:36.925Z,97549.59
2018-09-29T20:44:04.357Z,97547.60
2018-09-29T20:46:31.847Z,97546.77
2018-09-29T20:48:59.285Z,97546.37
2018-09-29T20:51:26.763Z,97540.47
2018-09-29T20:53:54.238Z,97537.83
2018-09-29T20:56:21.739Z,97544.65
2018-09-29T20:58:49.193Z,97545.97
2018-09-29T21:01:16.651Z,97547.39
2018-09-29T21:03:44.116Z,97543.22
2018-09-29T21:06:11.745Z,97548.57
2018-09-29T21:08:39.188Z,97543.67
2018-09-29T21:11:07.068Z,97542.94
2018-09-29T21:13:34.522Z,97545.92
2018-09-29T21:16:01.984Z,97545.78
2018-09-29T21:18:29.542Z,97539.52
2018-09-29T21:20:57.015Z,97543.41
2018-09-29T21:23:24.561Z,97542.41
2018-09-29T21:25:52.036Z,97542.27
2018-09-29T21:28:19.540Z,97544.98
2018-09-29T21:30:47.082Z,97544.32
2018-09-29T21:33:14.567Z,97544.98
2018-09-29T21:35:42.031Z,97547.32
2018-09-29T21:38:09.689Z,97553.20
2018-09-29T21:40:37.131Z,97544.84
2018-09-29T21:43:04.647Z,97551.48
2018-09-29T21:45:32.148Z,97545.02
2018-09-29T21:47:59.685Z,97545.13
2018-09-29T21:50:27.113Z,97542.06
2018-09-29T21:52:54.584Z,97544.12
2018-09-29T21:55:22.031Z,97540.68
2018-09-29T21:57:49.507Z,97543.94
2018-09-29T22:00:17.069Z,97544.32
2018-09-29T22:02:44.563Z,97540.25
2018-09-29T22:05:12.180Z,97545.25
2018-09-29T22:07:39.677Z,97541.08
2018-09-29T22:10:07.089Z,97543.58
2018-09-29T22:12:34.566Z,97536.48
2018-09-29T22:15:02.041Z,97532.93
2018-09-29T22:17:29.565Z,97529.73
2018-09-29T22:19:57.027Z,97530.32
2018-09-29T22:22:25.164Z,97537.85
2018-09-29T22:24:52.624Z,97533.70
2018-09-29T22:27:20.122Z,97532.46
2018-09-29T22:29:47.545Z,97529.86
2018-09-29T22:32:15.231Z,97534.97
2018-09-29T22:34:42.880Z,97538.39
2018-09-29T22:37:10.419Z,97535.30
2018-09-29T22:39:37.927Z,97537.44
2018-09-29T22:42:05.492Z,97534.69
2018-09-29T22:44:32.949Z,97535.58
2018-09-29T22:47:00.515Z,97536.45
2018-09-29T22:49:28.118Z,97536.27
2018-09-29T22:51:55.559Z,97536.84
2018-09-29T22:54:22.995Z,97533.06
2018-09-29T22:56:50.440Z,97534.62
2018-09-29T22:59:17.964Z,97540.38
2018-09-29T23:01:45.417Z,97533.23
2018-09-29T23:04:12.980Z,97528.12
2018-09-29T23:06:40.444Z,97536.36
2018-09-29T23:09:08.388Z,97531.47
2018-09-29T23:11:36.847Z,97527.94
2018-09-29T23:14:04.383Z,97532.06
2018-09-29T23:16:31.844Z,97529.39
2018-09-29T23:18:59.356Z,97524.13
2018-09-29T23:21:26.849Z,97528.53
2018-09-29T23:23:54.274Z,97523.89
2018-09-29T23:26:21.718Z,97530.32
2018-09-29T23:28:49.227Z,97522.42
2018-09-29T23:31:16.662Z,97526.77
2018-09-29T23:33:44.134Z,97524.23
2018-09-29T23:36:11.610Z,97528.09
2018-09-29T23:38:39.019Z,97526.74
2018-09-29T23:41:06.427Z,97519.03
2018-09-29T23:43:33.943Z,97523.27
2018-09-29T23:46:01.415Z,97517.13
2018-09-29T23:48:28.868Z,97521.56
2018-09-29T23:50:56.375Z,97525.59
2018-09-29T23:53:23.811Z,97527.42
2018-09-29T23:55:51.286Z,97523.34
2018-09-29T23:58:18.780Z,97516.81
